sensor_id;sensor_type;location;lat;lon;timestamp;P1;durP1;ratioP1;P2;durP2;ratioP2
63157;SDS011;49381;49.338;8.794;2023-03-04T00:01:25;22.00;;;10.65;;
63157;SDS011;49381;49.338;8.794;2023-03-04T00:03:25;22.17;;;11.50;;
63157;SDS011;49381;49.338;8.794;2023-03-04T00:05:26;21.75;;;10.68;;
63157;SDS011;49381;49.338;8.794;2023-03-04T00:07:26;29.13;;;12.30;;
63157;SDS011;49381;49.338;8.794;2023-03-04T00:09:28;26.88;;;11.02;;
63157;SDS011;49381;49.338;8.794;2023-03-04T00:11:28;24.38;;;11.77;;
63157;SDS011;49381;49.338;8.794;2023-03-04T00:13:28;27.80;;;11.80;;
63157;SDS011;49381;49.338;8.794;2023-03-04T00:15:29;24.45;;;10.93;;
63157;SDS011;49381;49.338;8.794;2023-03-04T00:17:29;23.05;;;11.68;;
63157;SDS011;49381;49.338;8.794;2023-03-04T00:19:29;26.77;;;11.40;;
63157;SDS011;49381;49.338;8.794;2023-03-04T00:21:30;26.30;;;12.68;;
63157;SDS011;49381;49.338;8.794;2023-03-04T00:23:30;24.42;;;12.30;;
63157;SDS011;49381;49.338;8.794;2023-03-04T00:25:32;26.05;;;11.18;;
63157;SDS011;49381;49.338;8.794;2023-03-04T00:27:32;21.20;;;11.63;;
63157;SDS011;49381;49.338;8.794;2023-03-04T00:29:32;18.30;;;9.15;;
63157;SDS011;49381;49.338;8.794;2023-03-04T00:31:33;22.90;;;10.55;;
63157;SDS011;49381;49.338;8.794;2023-03-04T00:33:33;22.85;;;10.25;;
63157;SDS011;49381;49.338;8.794;2023-03-04T00:35:34;29.88;;;11.82;;
63157;SDS011;49381;49.338;8.794;2023-03-04T00:37:34;27.13;;;10.73;;
63157;SDS011;49381;49.338;8.794;2023-03-04T00:39:35;23.48;;;10.45;;
63157;SDS011;49381;49.338;8.794;2023-03-04T00:41:36;28.45;;;11.63;;
63157;SDS011;49381;49.338;8.794;2023-03-04T00:43:37;30.52;;;11.07;;
63157;SDS011;49381;49.338;8.794;2023-03-04T00:45:37;27.92;;;11.77;;
63157;SDS011;49381;49.338;8.794;2023-03-04T00:47:37;25.75;;;12.25;;
63157;SDS011;49381;49.338;8.794;2023-03-04T00:49:38;24.60;;;11.40;;
63157;SDS011;49381;49.338;8.794;2023-03-04T00:51:38;28.92;;;11.82;;
63157;SDS011;49381;49.338;8.794;2023-03-04T00:53:38;22.95;;;11.63;;
63157;SDS011;49381;49.338;8.794;2023-03-04T00:55:39;23.48;;;10.80;;
63157;SDS011;49381;49.338;8.794;2023-03-04T00:57:40;22.63;;;10.93;;
63157;SDS011;49381;49.338;8.794;2023-03-04T00:59:41;22.98;;;10.88;;
63157;SDS011;49381;49.338;8.794;2023-03-04T01:01:41;24.27;;;10.57;;
63157;SDS011;49381;49.338;8.794;2023-03-04T01:03:41;19.75;;;9.82;;
63157;SDS011;49381;49.338;8.794;2023-03-04T01:05:42;22.30;;;10.65;;
63157;SDS011;49381;49.338;8.794;2023-03-04T01:07:42;24.75;;;11.50;;
63157;SDS011;49381;49.338;8.794;2023-03-04T01:09:43;22.70;;;10.73;;
63157;SDS011;49381;49.338;8.794;2023-03-04T01:11:43;22.27;;;10.23;;
63157;SDS011;49381;49.338;8.794;2023-03-04T01:13:45;24.95;;;11.30;;
63157;SDS011;49381;49.338;8.794;2023-03-04T01:15:45;24.45;;;10.35;;
63157;SDS011;49381;49.338;8.794;2023-03-04T01:17:45;26.20;;;10.82;;
63157;SDS011;49381;49.338;8.794;2023-03-04T01:19:46;21.38;;;9.60;;
63157;SDS011;49381;49.338;8.794;2023-03-04T01:21:46;21.45;;;10.90;;
63157;SDS011;49381;49.338;8.794;2023-03-04T01:23:46;22.17;;;9.37;;
63157;SDS011;49381;49.338;8.794;2023-03-04T01:25:47;26.38;;;9.90;;
63157;SDS011;49381;49.338;8.794;2023-03-04T01:27:47;22.08;;;10.07;;
63157;SDS011;49381;49.338;8.794;2023-03-04T01:29:49;20.75;;;9.75;;
63157;SDS011;49381;49.338;8.794;2023-03-04T01:31:49;22.98;;;11.00;;
63157;SDS011;49381;49.338;8.794;2023-03-04T01:33:49;23.50;;;11.00;;
63157;SDS011;49381;49.338;8.794;2023-03-04T01:35:49;25.48;;;10.63;;
63157;SDS011;49381;49.338;8.794;2023-03-04T01:37:50;24.63;;;10.65;;
63157;SDS011;49381;49.338;8.794;2023-03-04T01:39:50;22.77;;;9.83;;
63157;SDS011;49381;49.338;8.794;2023-03-04T01:41:50;21.73;;;9.55;;
63157;SDS011;49381;49.338;8.794;2023-03-04T01:43:51;21.92;;;9.93;;
63157;SDS011;49381;49.338;8.794;2023-03-04T01:45:55;21.60;;;9.77;;
63157;SDS011;49381;49.338;8.794;2023-03-04T01:47:56;22.42;;;10.75;;
63157;SDS011;49381;49.338;8.794;2023-03-04T01:49:57;23.90;;;11.02;;
63157;SDS011;49381;49.338;8.794;2023-03-04T01:52:00;21.40;;;10.98;;
63157;SDS011;49381;49.338;8.794;2023-03-04T01:54:00;26.23;;;11.10;;
63157;SDS011;49381;49.338;8.794;2023-03-04T01:56:01;23.27;;;11.00;;
63157;SDS011;49381;49.338;8.794;2023-03-04T01:58:09;23.17;;;10.57;;
63157;SDS011;49381;49.338;8.794;2023-03-04T02:00:22;19.02;;;9.50;;
63157;SDS011;49381;49.338;8.794;2023-03-04T02:02:26;18.65;;;9.73;;
63157;SDS011;49381;49.338;8.794;2023-03-04T02:04:27;20.25;;;9.73;;
63157;SDS011;49381;49.338;8.794;2023-03-04T02:06:29;19.25;;;9.27;;
63157;SDS011;49381;49.338;8.794;2023-03-04T02:08:30;24.05;;;10.02;;
63157;SDS011;49381;49.338;8.794;2023-03-04T02:10:30;24.92;;;10.40;;
63157;SDS011;49381;49.338;8.794;2023-03-04T02:12:31;20.23;;;10.10;;
63157;SDS011;49381;49.338;8.794;2023-03-04T02:14:31;22.98;;;10.38;;
63157;SDS011;49381;49.338;8.794;2023-03-04T02:16:32;21.38;;;10.13;;
63157;SDS011;49381;49.338;8.794;2023-03-04T02:18:34;24.67;;;10.73;;
63157;SDS011;49381;49.338;8.794;2023-03-04T02:20:36;26.50;;;10.25;;
63157;SDS011;49381;49.338;8.794;2023-03-04T02:22:42;20.30;;;8.98;;
63157;SDS011;49381;49.338;8.794;2023-03-04T02:26:51;20.25;;;9.52;;
63157;SDS011;49381;49.338;8.794;2023-03-04T02:28:53;21.25;;;9.43;;
63157;SDS011;49381;49.338;8.794;2023-03-04T02:30:54;25.75;;;10.55;;
63157;SDS011;49381;49.338;8.794;2023-03-04T02:32:54;21.88;;;9.82;;
63157;SDS011;49381;49.338;8.794;2023-03-04T02:34:54;22.08;;;10.13;;
63157;SDS011;49381;49.338;8.794;2023-03-04T02:36:55;24.15;;;10.35;;
63157;SDS011;49381;49.338;8.794;2023-03-04T02:38:59;27.02;;;10.40;;
63157;SDS011;49381;49.338;8.794;2023-03-04T02:41:01;23.08;;;10.30;;
63157;SDS011;49381;49.338;8.794;2023-03-04T02:43:04;24.40;;;9.90;;
63157;SDS011;49381;49.338;8.794;2023-03-04T02:45:04;22.73;;;11.50;;
63157;SDS011;49381;49.338;8.794;2023-03-04T02:47:06;26.23;;;11.32;;
63157;SDS011;49381;49.338;8.794;2023-03-04T02:49:08;24.63;;;10.15;;
63157;SDS011;49381;49.338;8.794;2023-03-04T02:51:08;25.90;;;11.43;;
63157;SDS011;49381;49.338;8.794;2023-03-04T02:53:09;22.17;;;9.65;;
63157;SDS011;49381;49.338;8.794;2023-03-04T02:55:10;26.08;;;11.15;;
63157;SDS011;49381;49.338;8.794;2023-03-04T02:57:10;25.00;;;10.67;;
63157;SDS011;49381;49.338;8.794;2023-03-04T02:59:14;21.85;;;10.23;;
63157;SDS011;49381;49.338;8.794;2023-03-04T03:01:14;21.05;;;9.02;;
63157;SDS011;49381;49.338;8.794;2023-03-04T03:03:15;21.70;;;9.27;;
63157;SDS011;49381;49.338;8.794;2023-03-04T03:05:15;20.35;;;10.25;;
63157;SDS011;49381;49.338;8.794;2023-03-04T03:07:16;26.08;;;10.95;;
63157;SDS011;49381;49.338;8.794;2023-03-04T03:09:16;25.63;;;10.68;;
63157;SDS011;49381;49.338;8.794;2023-03-04T03:11:17;26.35;;;11.05;;
63157;SDS011;49381;49.338;8.794;2023-03-04T03:13:17;24.95;;;11.55;;
63157;SDS011;49381;49.338;8.794;2023-03-04T03:15:19;28.07;;;11.10;;
63157;SDS011;49381;49.338;8.794;2023-03-04T03:17:19;22.40;;;10.13;;
63157;SDS011;49381;49.338;8.794;2023-03-04T03:19:20;25.95;;;10.55;;
63157;SDS011;49381;49.338;8.794;2023-03-04T03:21:20;22.55;;;11.57;;
63157;SDS011;49381;49.338;8.794;2023-03-04T03:23:20;24.20;;;10.70;;
63157;SDS011;49381;49.338;8.794;2023-03-04T03:25:20;23.70;;;10.23;;
63157;SDS011;49381;49.338;8.794;2023-03-04T03:27:21;19.88;;;9.85;;
63157;SDS011;49381;49.338;8.794;2023-03-04T03:29:21;21.77;;;9.13;;
63157;SDS011;49381;49.338;8.794;2023-03-04T03:31:23;25.70;;;8.90;;
63157;SDS011;49381;49.338;8.794;2023-03-04T03:33:23;21.50;;;9.48;;
63157;SDS011;49381;49.338;8.794;2023-03-04T03:35:26;23.65;;;10.23;;
63157;SDS011;49381;49.338;8.794;2023-03-04T03:37:26;23.77;;;9.93;;
63157;SDS011;49381;49.338;8.794;2023-03-04T03:39:26;21.17;;;9.75;;
63157;SDS011;49381;49.338;8.794;2023-03-04T03:41:27;22.60;;;10.75;;
63157;SDS011;49381;49.338;8.794;2023-03-04T03:43:27;23.20;;;10.77;;
63157;SDS011;49381;49.338;8.794;2023-03-04T03:45:27;23.33;;;9.80;;
63157;SDS011;49381;49.338;8.794;2023-03-04T03:47:29;19.73;;;9.27;;
63157;SDS011;49381;49.338;8.794;2023-03-04T03:49:29;22.38;;;9.40;;
63157;SDS011;49381;49.338;8.794;2023-03-04T03:51:30;20.90;;;8.65;;
63157;SDS011;49381;49.338;8.794;2023-03-04T03:53:30;19.27;;;8.70;;
63157;SDS011;49381;49.338;8.794;2023-03-04T03:55:30;22.20;;;10.27;;
63157;SDS011;49381;49.338;8.794;2023-03-04T03:57:31;25.02;;;10.93;;
63157;SDS011;49381;49.338;8.794;2023-03-04T03:59:31;22.85;;;11.30;;
63157;SDS011;49381;49.338;8.794;2023-03-04T04:01:31;25.40;;;11.48;;
63157;SDS011;49381;49.338;8.794;2023-03-04T04:03:33;29.38;;;12.27;;
63157;SDS011;49381;49.338;8.794;2023-03-04T04:05:34;32.63;;;13.90;;
63157;SDS011;49381;49.338;8.794;2023-03-04T04:07:34;35.70;;;14.07;;
63157;SDS011;49381;49.338;8.794;2023-03-04T04:09:35;35.05;;;14.60;;
63157;SDS011;49381;49.338;8.794;2023-03-04T04:11:35;34.10;;;13.30;;
63157;SDS011;49381;49.338;8.794;2023-03-04T04:13:36;27.52;;;12.63;;
63157;SDS011;49381;49.338;8.794;2023-03-04T04:15:38;24.42;;;10.70;;
63157;SDS011;49381;49.338;8.794;2023-03-04T04:17:38;21.27;;;10.55;;
63157;SDS011;49381;49.338;8.794;2023-03-04T04:19:40;25.42;;;12.00;;
63157;SDS011;49381;49.338;8.794;2023-03-04T04:21:41;29.33;;;12.15;;
63157;SDS011;49381;49.338;8.794;2023-03-04T04:23:41;33.45;;;13.63;;
63157;SDS011;49381;49.338;8.794;2023-03-04T04:25:41;38.13;;;13.23;;
63157;SDS011;49381;49.338;8.794;2023-03-04T04:27:41;30.77;;;12.53;;
63157;SDS011;49381;49.338;8.794;2023-03-04T04:29:42;40.17;;;15.30;;
63157;SDS011;49381;49.338;8.794;2023-03-04T04:31:42;38.25;;;14.50;;
63157;SDS011;49381;49.338;8.794;2023-03-04T04:33:42;34.42;;;14.20;;
63157;SDS011;49381;49.338;8.794;2023-03-04T04:35:44;27.47;;;12.67;;
63157;SDS011;49381;49.338;8.794;2023-03-04T04:37:44;24.67;;;11.00;;
63157;SDS011;49381;49.338;8.794;2023-03-04T04:39:45;20.50;;;10.48;;
63157;SDS011;49381;49.338;8.794;2023-03-04T04:41:45;22.13;;;10.45;;
63157;SDS011;49381;49.338;8.794;2023-03-04T04:43:46;25.27;;;11.30;;
63157;SDS011;49381;49.338;8.794;2023-03-04T04:45:46;21.73;;;9.85;;
63157;SDS011;49381;49.338;8.794;2023-03-04T04:47:47;24.00;;;10.10;;
63157;SDS011;49381;49.338;8.794;2023-03-04T04:49:47;26.47;;;10.97;;
63157;SDS011;49381;49.338;8.794;2023-03-04T04:51:49;24.00;;;11.15;;
63157;SDS011;49381;49.338;8.794;2023-03-04T04:53:49;24.60;;;11.15;;
63157;SDS011;49381;49.338;8.794;2023-03-04T04:55:49;21.20;;;9.77;;
63157;SDS011;49381;49.338;8.794;2023-03-04T04:57:50;23.38;;;10.52;;
63157;SDS011;49381;49.338;8.794;2023-03-04T04:59:50;27.02;;;11.18;;
63157;SDS011;49381;49.338;8.794;2023-03-04T05:01:50;24.10;;;11.35;;
63157;SDS011;49381;49.338;8.794;2023-03-04T05:03:51;28.00;;;12.32;;
63157;SDS011;49381;49.338;8.794;2023-03-04T05:05:51;24.45;;;11.73;;
63157;SDS011;49381;49.338;8.794;2023-03-04T05:07:53;27.77;;;12.07;;
63157;SDS011;49381;49.338;8.794;2023-03-04T05:09:53;27.63;;;12.23;;
63157;SDS011;49381;49.338;8.794;2023-03-04T05:11:54;26.30;;;12.00;;
63157;SDS011;49381;49.338;8.794;2023-03-04T05:13:54;27.73;;;11.80;;
63157;SDS011;49381;49.338;8.794;2023-03-04T05:15:55;24.85;;;11.20;;
63157;SDS011;49381;49.338;8.794;2023-03-04T05:17:56;28.77;;;12.00;;
63157;SDS011;49381;49.338;8.794;2023-03-04T05:20:07;25.08;;;10.48;;
63157;SDS011;49381;49.338;8.794;2023-03-04T05:22:18;31.20;;;12.32;;
63157;SDS011;49381;49.338;8.794;2023-03-04T05:24:20;27.88;;;12.60;;
63157;SDS011;49381;49.338;8.794;2023-03-04T05:26:26;26.73;;;12.52;;
63157;SDS011;49381;49.338;8.794;2023-03-04T05:28:35;28.67;;;12.82;;
63157;SDS011;49381;49.338;8.794;2023-03-04T05:30:36;25.05;;;12.77;;
63157;SDS011;49381;49.338;8.794;2023-03-04T05:32:45;22.58;;;11.57;;
63157;SDS011;49381;49.338;8.794;2023-03-04T05:34:51;27.25;;;12.65;;
63157;SDS011;49381;49.338;8.794;2023-03-04T05:36:51;27.48;;;12.57;;
63157;SDS011;49381;49.338;8.794;2023-03-04T05:38:51;30.97;;;13.47;;
63157;SDS011;49381;49.338;8.794;2023-03-04T05:40:56;24.73;;;12.10;;
63157;SDS011;49381;49.338;8.794;2023-03-04T05:42:57;25.92;;;11.05;;
63157;SDS011;49381;49.338;8.794;2023-03-04T05:44:57;27.75;;;11.60;;
63157;SDS011;49381;49.338;8.794;2023-03-04T05:46:58;27.25;;;12.15;;
63157;SDS011;49381;49.338;8.794;2023-03-04T05:48:58;29.58;;;12.23;;
63157;SDS011;49381;49.338;8.794;2023-03-04T05:50:59;27.23;;;11.07;;
63157;SDS011;49381;49.338;8.794;2023-03-04T05:53:00;28.13;;;11.35;;
63157;SDS011;49381;49.338;8.794;2023-03-04T05:55:00;29.02;;;12.43;;
63157;SDS011;49381;49.338;8.794;2023-03-04T05:57:02;27.85;;;11.75;;
63157;SDS011;49381;49.338;8.794;2023-03-04T05:59:02;25.20;;;11.43;;
63157;SDS011;49381;49.338;8.794;2023-03-04T06:01:03;25.10;;;12.73;;
63157;SDS011;49381;49.338;8.794;2023-03-04T06:03:03;31.75;;;13.80;;
63157;SDS011;49381;49.338;8.794;2023-03-04T06:05:04;25.63;;;12.65;;
63157;SDS011;49381;49.338;8.794;2023-03-04T06:07:06;26.00;;;12.25;;
63157;SDS011;49381;49.338;8.794;2023-03-04T06:09:06;30.13;;;12.57;;
63157;SDS011;49381;49.338;8.794;2023-03-04T06:11:07;24.92;;;11.27;;
63157;SDS011;49381;49.338;8.794;2023-03-04T06:13:08;26.73;;;13.85;;
63157;SDS011;49381;49.338;8.794;2023-03-04T06:15:09;39.17;;;18.65;;
63157;SDS011;49381;49.338;8.794;2023-03-04T06:17:10;30.40;;;13.55;;
63157;SDS011;49381;49.338;8.794;2023-03-04T06:19:11;22.20;;;12.35;;
63157;SDS011;49381;49.338;8.794;2023-03-04T06:21:11;30.03;;;12.70;;
63157;SDS011;49381;49.338;8.794;2023-03-04T06:23:12;25.83;;;12.95;;
63157;SDS011;49381;49.338;8.794;2023-03-04T06:25:12;28.55;;;13.57;;
63157;SDS011;49381;49.338;8.794;2023-03-04T06:27:17;25.73;;;12.80;;
63157;SDS011;49381;49.338;8.794;2023-03-04T06:29:19;29.35;;;13.10;;
63157;SDS011;49381;49.338;8.794;2023-03-04T06:31:19;33.40;;;14.48;;
63157;SDS011;49381;49.338;8.794;2023-03-04T06:33:22;26.55;;;12.90;;
63157;SDS011;49381;49.338;8.794;2023-03-04T06:35:22;29.67;;;13.32;;
63157;SDS011;49381;49.338;8.794;2023-03-04T06:37:23;31.15;;;14.07;;
63157;SDS011;49381;49.338;8.794;2023-03-04T06:39:23;29.45;;;12.82;;
63157;SDS011;49381;49.338;8.794;2023-03-04T06:41:25;39.92;;;14.93;;
63157;SDS011;49381;49.338;8.794;2023-03-04T06:43:25;31.80;;;12.52;;
63157;SDS011;49381;49.338;8.794;2023-03-04T06:45:27;33.25;;;13.52;;
63157;SDS011;49381;49.338;8.794;2023-03-04T06:47:27;30.13;;;13.65;;
63157;SDS011;49381;49.338;8.794;2023-03-04T06:49:28;34.67;;;16.08;;
63157;SDS011;49381;49.338;8.794;2023-03-04T06:51:28;34.45;;;14.50;;
63157;SDS011;49381;49.338;8.794;2023-03-04T06:53:28;27.20;;;13.90;;
63157;SDS011;49381;49.338;8.794;2023-03-04T06:55:29;32.53;;;13.63;;
63157;SDS011;49381;49.338;8.794;2023-03-04T06:57:29;31.45;;;13.98;;
63157;SDS011;49381;49.338;8.794;2023-03-04T06:59:30;35.92;;;14.00;;
63157;SDS011;49381;49.338;8.794;2023-03-04T07:01:32;29.33;;;12.82;;
63157;SDS011;49381;49.338;8.794;2023-03-04T07:03:32;34.22;;;14.20;;
63157;SDS011;49381;49.338;8.794;2023-03-04T07:05:32;32.60;;;15.27;;
63157;SDS011;49381;49.338;8.794;2023-03-04T07:07:32;31.13;;;14.05;;
63157;SDS011;49381;49.338;8.794;2023-03-04T07:09:33;36.97;;;15.95;;
63157;SDS011;49381;49.338;8.794;2023-03-04T07:11:33;34.78;;;14.65;;
63157;SDS011;49381;49.338;8.794;2023-03-04T07:13:34;32.72;;;14.93;;
63157;SDS011;49381;49.338;8.794;2023-03-04T07:15:34;36.97;;;15.00;;
63157;SDS011;49381;49.338;8.794;2023-03-04T07:17:36;35.80;;;14.63;;
63157;SDS011;49381;49.338;8.794;2023-03-04T07:19:36;36.15;;;14.50;;
63157;SDS011;49381;49.338;8.794;2023-03-04T07:21:36;31.08;;;15.25;;
63157;SDS011;49381;49.338;8.794;2023-03-04T07:23:37;36.17;;;14.98;;
63157;SDS011;49381;49.338;8.794;2023-03-04T07:25:37;38.88;;;17.20;;
63157;SDS011;49381;49.338;8.794;2023-03-04T07:27:38;33.63;;;17.08;;
63157;SDS011;49381;49.338;8.794;2023-03-04T07:29:38;39.28;;;17.85;;
63157;SDS011;49381;49.338;8.794;2023-03-04T07:31:44;53.78;;;24.60;;
63157;SDS011;49381;49.338;8.794;2023-03-04T07:33:46;51.00;;;24.05;;
63157;SDS011;49381;49.338;8.794;2023-03-04T07:35:46;43.83;;;18.95;;
63157;SDS011;49381;49.338;8.794;2023-03-04T07:37:47;40.05;;;18.10;;
63157;SDS011;49381;49.338;8.794;2023-03-04T07:39:48;43.83;;;18.58;;
63157;SDS011;49381;49.338;8.794;2023-03-04T07:41:48;41.58;;;18.38;;
63157;SDS011;49381;49.338;8.794;2023-03-04T07:43:48;40.13;;;16.40;;
63157;SDS011;49381;49.338;8.794;2023-03-04T07:45:49;41.10;;;17.75;;
63157;SDS011;49381;49.338;8.794;2023-03-04T07:47:49;38.23;;;16.33;;
63157;SDS011;49381;49.338;8.794;2023-03-04T07:49:51;36.78;;;16.50;;
63157;SDS011;49381;49.338;8.794;2023-03-04T07:51:52;39.45;;;18.27;;
63157;SDS011;49381;49.338;8.794;2023-03-04T07:53:52;42.65;;;17.92;;
63157;SDS011;49381;49.338;8.794;2023-03-04T07:55:54;38.72;;;18.05;;
63157;SDS011;49381;49.338;8.794;2023-03-04T07:57:55;42.10;;;18.60;;
63157;SDS011;49381;49.338;8.794;2023-03-04T07:59:55;47.17;;;19.65;;
63157;SDS011;49381;49.338;8.794;2023-03-04T08:01:57;45.80;;;19.52;;
63157;SDS011;49381;49.338;8.794;2023-03-04T08:03:57;49.13;;;20.07;;
63157;SDS011;49381;49.338;8.794;2023-03-04T08:05:59;48.58;;;18.88;;
63157;SDS011;49381;49.338;8.794;2023-03-04T08:08:03;47.15;;;20.23;;
63157;SDS011;49381;49.338;8.794;2023-03-04T08:10:03;40.85;;;16.63;;
63157;SDS011;49381;49.338;8.794;2023-03-04T08:12:04;54.45;;;21.25;;
63157;SDS011;49381;49.338;8.794;2023-03-04T08:14:05;59.53;;;22.17;;
63157;SDS011;49381;49.338;8.794;2023-03-04T08:16:06;54.88;;;21.27;;
63157;SDS011;49381;49.338;8.794;2023-03-04T08:18:07;57.70;;;20.50;;
63157;SDS011;49381;49.338;8.794;2023-03-04T08:20:08;57.38;;;20.42;;
63157;SDS011;49381;49.338;8.794;2023-03-04T08:22:11;46.38;;;18.58;;
63157;SDS011;49381;49.338;8.794;2023-03-04T08:24:11;49.10;;;19.65;;
63157;SDS011;49381;49.338;8.794;2023-03-04T08:26:13;55.50;;;22.38;;
63157;SDS011;49381;49.338;8.794;2023-03-04T08:28:15;52.35;;;20.40;;
63157;SDS011;49381;49.338;8.794;2023-03-04T08:30:16;56.42;;;21.25;;
63157;SDS011;49381;49.338;8.794;2023-03-04T08:32:16;52.15;;;19.98;;
63157;SDS011;49381;49.338;8.794;2023-03-04T08:34:17;61.03;;;20.95;;
63157;SDS011;49381;49.338;8.794;2023-03-04T08:36:19;50.78;;;20.20;;
63157;SDS011;49381;49.338;8.794;2023-03-04T08:38:20;56.47;;;21.55;;
63157;SDS011;49381;49.338;8.794;2023-03-04T08:40:21;57.38;;;22.98;;
63157;SDS011;49381;49.338;8.794;2023-03-04T08:42:24;55.15;;;20.98;;
63157;SDS011;49381;49.338;8.794;2023-03-04T08:44:24;55.13;;;21.55;;
63157;SDS011;49381;49.338;8.794;2023-03-04T08:46:26;57.97;;;21.42;;
63157;SDS011;49381;49.338;8.794;2023-03-04T08:48:44;65.22;;;24.40;;
63157;SDS011;49381;49.338;8.794;2023-03-04T08:50:45;60.30;;;22.80;;
63157;SDS011;49381;49.338;8.794;2023-03-04T08:52:47;52.60;;;22.10;;
63157;SDS011;49381;49.338;8.794;2023-03-04T08:54:55;60.67;;;23.70;;
63157;SDS011;49381;49.338;8.794;2023-03-04T08:57:17;59.28;;;23.80;;
63157;SDS011;49381;49.338;8.794;2023-03-04T08:59:36;87.35;;;34.88;;
63157;SDS011;49381;49.338;8.794;2023-03-04T09:01:37;82.60;;;33.40;;
63157;SDS011;49381;49.338;8.794;2023-03-04T09:03:45;62.72;;;23.48;;
63157;SDS011;49381;49.338;8.794;2023-03-04T09:05:46;67.75;;;26.58;;
63157;SDS011;49381;49.338;8.794;2023-03-04T09:07:53;60.35;;;23.73;;
63157;SDS011;49381;49.338;8.794;2023-03-04T09:09:55;57.00;;;24.25;;
63157;SDS011;49381;49.338;8.794;2023-03-04T09:12:08;61.33;;;24.63;;
63157;SDS011;49381;49.338;8.794;2023-03-04T09:14:10;60.30;;;23.90;;
63157;SDS011;49381;49.338;8.794;2023-03-04T09:16:11;62.22;;;24.05;;
63157;SDS011;49381;49.338;8.794;2023-03-04T09:18:13;61.65;;;25.08;;
63157;SDS011;49381;49.338;8.794;2023-03-04T09:20:16;66.32;;;24.02;;
63157;SDS011;49381;49.338;8.794;2023-03-04T09:22:16;52.70;;;21.63;;
63157;SDS011;49381;49.338;8.794;2023-03-04T09:24:18;55.63;;;23.70;;
63157;SDS011;49381;49.338;8.794;2023-03-04T09:26:22;62.05;;;23.45;;
63157;SDS011;49381;49.338;8.794;2023-03-04T09:28:24;62.50;;;22.35;;
63157;SDS011;49381;49.338;8.794;2023-03-04T09:30:26;59.75;;;24.65;;
63157;SDS011;49381;49.338;8.794;2023-03-04T09:32:28;57.13;;;23.80;;
63157;SDS011;49381;49.338;8.794;2023-03-04T09:34:30;63.53;;;24.77;;
63157;SDS011;49381;49.338;8.794;2023-03-04T09:36:47;60.13;;;23.33;;
63157;SDS011;49381;49.338;8.794;2023-03-04T09:38:49;54.65;;;22.27;;
63157;SDS011;49381;49.338;8.794;2023-03-04T09:40:50;56.03;;;22.55;;
63157;SDS011;49381;49.338;8.794;2023-03-04T09:42:52;55.08;;;24.42;;
63157;SDS011;49381;49.338;8.794;2023-03-04T09:44:55;54.70;;;23.10;;
63157;SDS011;49381;49.338;8.794;2023-03-04T09:46:59;54.15;;;23.80;;
63157;SDS011;49381;49.338;8.794;2023-03-04T09:49:05;61.20;;;25.42;;
63157;SDS011;49381;49.338;8.794;2023-03-04T09:51:10;51.45;;;22.52;;
63157;SDS011;49381;49.338;8.794;2023-03-04T09:53:22;54.75;;;23.05;;
63157;SDS011;49381;49.338;8.794;2023-03-04T09:55:27;42.50;;;19.75;;
63157;SDS011;49381;49.338;8.794;2023-03-04T09:57:39;52.58;;;22.15;;
63157;SDS011;49381;49.338;8.794;2023-03-04T09:59:55;57.47;;;22.67;;
63157;SDS011;49381;49.338;8.794;2023-03-04T10:04:30;53.95;;;20.92;;
63157;SDS011;49381;49.338;8.794;2023-03-04T10:06:38;42.40;;;19.58;;
63157;SDS011;49381;49.338;8.794;2023-03-04T10:08:44;46.97;;;19.40;;
63157;SDS011;49381;49.338;8.794;2023-03-04T10:10:50;54.58;;;24.55;;
63157;SDS011;49381;49.338;8.794;2023-03-04T10:13:00;46.55;;;21.30;;
63157;SDS011;49381;49.338;8.794;2023-03-04T10:15:25;45.65;;;20.08;;
63157;SDS011;49381;49.338;8.794;2023-03-04T10:17:32;50.53;;;21.23;;
63157;SDS011;49381;49.338;8.794;2023-03-04T10:19:37;47.50;;;21.15;;
63157;SDS011;49381;49.338;8.794;2023-03-04T10:21:48;49.13;;;21.10;;
63157;SDS011;49381;49.338;8.794;2023-03-04T10:23:50;51.88;;;21.52;;
63157;SDS011;49381;49.338;8.794;2023-03-04T10:25:50;51.38;;;21.40;;
63157;SDS011;49381;49.338;8.794;2023-03-04T10:27:51;48.50;;;19.10;;
63157;SDS011;49381;49.338;8.794;2023-03-04T10:29:55;48.72;;;21.55;;
63157;SDS011;49381;49.338;8.794;2023-03-04T10:31:59;38.40;;;19.08;;
63157;SDS011;49381;49.338;8.794;2023-03-04T10:33:59;45.42;;;19.15;;
63157;SDS011;49381;49.338;8.794;2023-03-04T10:36:00;38.97;;;18.38;;
63157;SDS011;49381;49.338;8.794;2023-03-04T10:38:02;39.58;;;18.67;;
63157;SDS011;49381;49.338;8.794;2023-03-04T10:40:10;35.63;;;18.10;;
63157;SDS011;49381;49.338;8.794;2023-03-04T10:42:22;51.65;;;22.08;;
63157;SDS011;49381;49.338;8.794;2023-03-04T10:44:26;60.50;;;24.95;;
63157;SDS011;49381;49.338;8.794;2023-03-04T10:46:27;57.80;;;23.25;;
63157;SDS011;49381;49.338;8.794;2023-03-04T10:48:30;68.15;;;26.58;;
63157;SDS011;49381;49.338;8.794;2023-03-04T10:50:31;69.55;;;26.90;;
63157;SDS011;49381;49.338;8.794;2023-03-04T10:52:32;66.70;;;26.55;;
63157;SDS011;49381;49.338;8.794;2023-03-04T10:54:35;65.25;;;27.40;;
63157;SDS011;49381;49.338;8.794;2023-03-04T10:56:40;65.13;;;24.58;;
63157;SDS011;49381;49.338;8.794;2023-03-04T10:58:42;63.50;;;26.55;;
63157;SDS011;49381;49.338;8.794;2023-03-04T11:00:42;64.20;;;26.42;;
63157;SDS011;49381;49.338;8.794;2023-03-04T11:02:43;64.30;;;26.67;;
63157;SDS011;49381;49.338;8.794;2023-03-04T11:04:49;66.20;;;25.80;;
63157;SDS011;49381;49.338;8.794;2023-03-04T11:06:53;65.15;;;25.38;;
63157;SDS011;49381;49.338;8.794;2023-03-04T11:08:54;53.67;;;23.43;;
63157;SDS011;49381;49.338;8.794;2023-03-04T11:10:55;51.90;;;22.05;;
63157;SDS011;49381;49.338;8.794;2023-03-04T11:12:58;59.47;;;25.52;;
63157;SDS011;49381;49.338;8.794;2023-03-04T11:15:00;60.20;;;25.48;;
63157;SDS011;49381;49.338;8.794;2023-03-04T11:17:02;66.70;;;26.52;;
63157;SDS011;49381;49.338;8.794;2023-03-04T11:19:16;60.45;;;24.77;;
63157;SDS011;49381;49.338;8.794;2023-03-04T11:21:21;57.33;;;23.25;;
63157;SDS011;49381;49.338;8.794;2023-03-04T11:23:25;49.67;;;23.27;;
63157;SDS011;49381;49.338;8.794;2023-03-04T11:25:34;50.90;;;22.05;;
63157;SDS011;49381;49.338;8.794;2023-03-04T11:27:38;48.25;;;19.95;;
63157;SDS011;49381;49.338;8.794;2023-03-04T11:29:45;47.75;;;20.20;;
63157;SDS011;49381;49.338;8.794;2023-03-04T11:31:51;44.42;;;20.27;;
63157;SDS011;49381;49.338;8.794;2023-03-04T11:33:54;48.53;;;21.20;;
63157;SDS011;49381;49.338;8.794;2023-03-04T11:36:03;37.90;;;17.48;;
63157;SDS011;49381;49.338;8.794;2023-03-04T11:38:17;31.75;;;15.57;;
63157;SDS011;49381;49.338;8.794;2023-03-04T11:40:20;43.80;;;20.73;;
63157;SDS011;49381;49.338;8.794;2023-03-04T11:42:30;37.67;;;18.48;;
63157;SDS011;49381;49.338;8.794;2023-03-04T11:44:34;35.80;;;18.08;;
63157;SDS011;49381;49.338;8.794;2023-03-04T11:49:06;26.77;;;14.15;;
63157;SDS011;49381;49.338;8.794;2023-03-04T11:51:22;26.83;;;13.93;;
63157;SDS011;49381;49.338;8.794;2023-03-04T11:53:41;23.95;;;14.10;;
63157;SDS011;49381;49.338;8.794;2023-03-04T11:55:50;30.38;;;14.65;;
63157;SDS011;49381;49.338;8.794;2023-03-04T11:58:03;30.55;;;15.20;;
63157;SDS011;49381;49.338;8.794;2023-03-04T12:00:29;29.55;;;14.80;;
63157;SDS011;49381;49.338;8.794;2023-03-04T12:02:37;26.45;;;13.45;;
63157;SDS011;49381;49.338;8.794;2023-03-04T12:07:35;29.45;;;16.15;;